Time;durP1;ratioP1;P1;durP2;ratioP2;P2;SDS_P1;SDS_P2;PMS_P1;PMS_P2;Temp;Humidity;BMP_temperature;BMP_pressure;BME280_temperature;BME280_humidity;BME280_pressure;Samples;Min_cycle;Max_cycle;Signal;HPM_P1;HPM_P2
2022/04/17 00:00:25;;;;;;;6.15;4.28;;;7.50;98.60;;;;;;5031448;28;20042;-88
2022/04/17 00:02:51;;;;;;;8.68;5.00;;;7.40;99.10;;;;;;5031793;28;20161;-88
2022/04/17 00:05:17;;;;;;;6.80;5.05;;;7.40;99.10;;;;;;5030979;28;20061;-87
2022/04/17 00:07:43;;;;;;;6.82;4.82;;;7.30;99.60;;;;;;5031192;28;20073;-87
2022/04/17 00:10:09;;;;;;;6.57;4.93;;;7.30;99.90;;;;;;5030896;28;20041;-87
2022/04/17 00:12:35;;;;;;;6.70;4.47;;;7.30;99.90;;;;;;5031273;28;20281;-87
2022/04/17 00:15:04;;;;;;;7.43;4.88;;;7.30;99.50;;;;;;5030984;28;20041;-87
2022/04/17 00:17:30;;;;;;;5.90;4.22;;;7.30;99.70;;;;;;5013974;28;20033;-86
2022/04/17 00:19:56;;;;;;;7.78;4.53;;;7.30;99.70;;;;;;5030677;28;20041;-87
2022/04/17 00:22:23;;;;;;;7.72;4.50;;;7.30;99.80;;;;;;5030884;28;20126;-88
2022/04/17 00:24:48;;;;;;;6.18;4.85;;;7.20;99.90;;;;;;5032287;28;20115;-87
2022/04/17 00:27:15;;;;;;;7.00;4.85;;;7.20;99.90;;;;;;5031136;28;20061;-88
2022/04/17 00:29:41;;;;;;;6.68;4.55;;;7.20;99.90;;;;;;5030253;28;20052;-88
2022/04/17 00:32:07;;;;;;;6.75;4.93;;;7.10;99.90;;;;;;5030446;28;20030;-88
2022/04/17 00:34:33;;;;;;;6.75;4.80;;;7.10;99.90;;;;;;5030210;28;20033;-87
2022/04/17 00:36:59;;;;;;;7.15;4.75;;;7.10;99.90;;;;;;5030926;28;20037;-87
2022/04/17 00:39:25;;;;;;;6.85;4.85;;;7.00;99.90;;;;;;5030298;28;20168;-88
2022/04/17 00:41:53;;;;;;;8.25;5.30;;;7.00;99.90;;;;;;5028555;28;20038;-88
2022/04/17 00:44:18;;;;;;;6.00;4.57;;;6.90;99.90;;;;;;5030517;28;20502;-87
2022/04/17 00:46:44;;;;;;;7.88;5.47;;;6.90;99.90;;;;;;5030837;28;20036;-88
2022/04/17 00:49:10;;;;;;;7.13;5.10;;;6.80;99.90;;;;;;5030192;28;20142;-88
2022/04/17 00:51:36;;;;;;;7.15;5.30;;;6.70;99.90;;;;;;5030607;28;20037;-87
2022/04/17 00:54:04;;;;;;;7.50;5.22;;;6.60;99.90;;;;;;5030152;28;20298;-87
2022/04/17 00:56:31;;;;;;;6.53;5.10;;;6.60;99.90;;;;;;5030387;28;20037;-89
2022/04/17 00:58:57;;;;;;;7.00;4.95;;;6.40;99.90;;;;;;5030547;28;20041;-88
2022/04/17 01:01:37;;;;;;;7.15;5.18;;;6.30;99.90;;;;;;5048185;28;20045;-88
2022/04/17 01:04:09;;;;;;;6.97;5.20;;;6.20;99.90;;;;;;5031135;28;20392;-89
2022/04/17 01:06:40;;;;;;;7.40;5.32;;;6.00;99.90;;;;;;5031258;28;20037;-89
2022/04/17 01:09:06;;;;;;;8.50;5.20;;;6.60;99.90;;;;;;5028586;28;20064;-88
2022/04/17 01:11:32;;;;;;;7.88;5.15;;;6.00;99.90;;;;;;5004745;28;20065;-88
2022/04/17 01:14:01;;;;;;;7.15;5.40;;;6.10;99.90;;;;;;5015682;28;20073;-88
2022/04/17 01:16:27;;;;;;;6.57;5.40;;;5.50;99.90;;;;;;5031773;28;20482;-88
2022/04/17 01:19:01;;;;;;;8.00;5.40;;;6.10;99.90;;;;;;5047592;28;20041;-88
2022/04/17 01:21:28;;;;;;;8.20;5.20;;;5.60;99.90;;;;;;5031335;28;20045;-88
2022/04/17 01:26:56;;;;;;;6.57;5.43;;;5.90;99.90;;;;;;5050741;28;20101;-89
2022/04/17 01:29:22;;;;;;;7.50;5.63;;;6.10;99.90;;;;;;5039537;28;20156;-89
2022/04/17 01:31:48;;;;;;;8.30;5.57;;;5.50;99.90;;;;;;5031201;28;20077;-89
2022/04/17 01:34:19;;;;;;;7.78;5.60;;;5.50;99.90;;;;;;5031316;28;20194;-89
2022/04/17 01:36:46;;;;;;;7.40;5.43;;;5.50;99.90;;;;;;5031727;28;20052;-89
2022/04/17 01:39:13;;;;;;;7.40;5.68;;;5.60;99.90;;;;;;5031364;28;20113;-88
2022/04/17 01:41:39;;;;;;;9.60;5.82;;;5.60;99.90;;;;;;5031255;28;20049;-89
2022/04/17 01:44:06;;;;;;;8.02;5.80;;;5.80;99.90;;;;;;5030707;28;20041;-89
2022/04/17 01:46:32;;;;;;;9.13;6.20;;;5.90;99.90;;;;;;5030904;28;20064;-88
2022/04/17 01:48:58;;;;;;;8.20;6.20;;;5.70;99.90;;;;;;5030571;28;20071;-89
2022/04/17 01:51:24;;;;;;;9.18;5.82;;;5.90;99.90;;;;;;5030760;28;20452;-89
2022/04/17 01:53:49;;;;;;;7.38;5.57;;;6.00;99.90;;;;;;5030456;28;20038;-89
2022/04/17 01:56:15;;;;;;;9.65;6.10;;;5.40;99.90;;;;;;5014058;28;20430;-89
2022/04/17 01:58:41;;;;;;;6.72;5.53;;;5.50;99.90;;;;;;5030771;28;20078;-89
2022/04/17 02:01:07;;;;;;;8.63;5.60;;;6.00;99.90;;;;;;5030566;28;20051;-89
2022/04/17 02:03:32;;;;;;;8.02;6.10;;;5.70;99.90;;;;;;5014469;28;20049;-89
2022/04/17 02:06:00;;;;;;;8.23;6.03;;;5.20;99.90;;;;;;5030384;28;20029;-88
2022/04/17 02:08:28;;;;;;;6.80;5.55;;;5.40;99.90;;;;;;5013879;28;20099;-89
2022/04/17 02:10:54;;;;;;;9.77;6.10;;;6.10;99.90;;;;;;5029654;28;20034;-88
2022/04/17 02:13:19;;;;;;;8.10;6.13;;;5.40;99.90;;;;;;5029372;28;20095;-90
2022/04/17 02:15:45;;;;;;;9.70;6.07;;;5.20;99.90;;;;;;5014089;28;20564;-89
2022/04/17 02:18:12;;;;;;;8.50;5.97;;;5.60;99.90;;;;;;5014049;28;20081;-88
2022/04/17 02:20:37;;;;;;;8.38;5.70;;;5.10;99.90;;;;;;5030347;28;20049;-89
2022/04/17 02:23:03;;;;;;;9.52;5.53;;;5.40;99.90;;;;;;5030087;28;20577;-90
2022/04/17 02:25:29;;;;;;;9.75;5.90;;;5.20;99.90;;;;;;5029304;28;20042;-89
2022/04/17 02:27:54;;;;;;;8.15;6.22;;;5.40;99.90;;;;;;5029857;28;20048;-89
2022/04/17 02:30:20;;;;;;;9.63;6.05;;;4.80;99.90;;;;;;5030423;28;20088;-89
2022/04/17 02:32:46;;;;;;;7.95;5.70;;;5.40;99.90;;;;;;5030570;28;20029;-89
2022/04/17 02:35:11;;;;;;;9.25;5.60;;;5.50;99.90;;;;;;5030011;28;20081;-88
2022/04/17 02:37:37;;;;;;;9.25;6.05;;;4.50;99.90;;;;;;5030135;28;20050;-88
2022/04/17 02:40:03;;;;;;;10.15;6.47;;;5.30;99.90;;;;;;5029945;28;20047;-88
2022/04/17 02:42:29;;;;;;;8.45;6.13;;;5.00;99.90;;;;;;5030355;28;20076;-89
2022/04/17 02:44:54;;;;;;;9.35;6.60;;;5.50;99.90;;;;;;5029955;28;20034;-89
2022/04/17 02:50:04;;;;;;;8.90;6.07;;;4.80;99.90;;;;;;5030225;28;20399;-88
2022/04/17 02:52:30;;;;;;;8.60;6.13;;;4.80;99.90;;;;;;5030117;28;20403;-88
2022/04/17 02:54:55;;;;;;;8.38;6.07;;;4.70;99.90;;;;;;5029950;28;20042;-88
2022/04/17 02:57:21;;;;;;;12.32;6.25;;;4.70;99.90;;;;;;5049961;28;20541;-88
2022/04/17 02:59:46;;;;;;;7.63;6.05;;;4.60;99.90;;;;;;5053265;28;20029;-89
2022/04/17 03:07:40;;;;;;;7.25;5.68;;;4.50;99.90;;;;;;5032357;28;20045;-88
2022/04/17 03:10:06;;;;;;;9.32;5.95;;;4.40;99.90;;;;;;5016359;28;20091;-89
2022/04/17 03:12:32;;;;;;;7.15;5.57;;;4.40;99.90;;;;;;5033816;28;20445;-89
2022/04/17 03:14:57;;;;;;;9.02;6.13;;;4.30;99.90;;;;;;5016761;28;20050;-89
2022/04/17 03:17:24;;;;;;;7.22;6.05;;;4.30;99.90;;;;;;5031965;28;20052;-89
2022/04/17 03:19:52;;;;;;;8.80;6.05;;;4.30;99.90;;;;;;5032471;28;20049;-89
2022/04/17 03:22:21;;;;;;;7.82;6.43;;;4.20;99.90;;;;;;5033293;28;20491;-89
2022/04/17 03:24:46;;;;;;;9.85;6.60;;;4.20;99.90;;;;;;5032811;28;20041;-88
2022/04/17 03:27:12;;;;;;;8.48;6.20;;;4.30;99.90;;;;;;5033219;28;20518;-88
2022/04/17 03:29:38;;;;;;;8.00;6.35;;;4.10;99.90;;;;;;5032851;28;20044;-89
2022/04/17 03:32:04;;;;;;;8.55;6.97;;;4.10;99.90;;;;;;5033528;28;20048;-89
2022/04/17 03:34:29;;;;;;;9.65;6.65;;;4.00;99.90;;;;;;5033151;28;20076;-89
2022/04/17 03:36:58;;;;;;;9.40;6.85;;;4.00;99.90;;;;;;5032992;28;20053;-89
2022/04/17 03:39:24;;;;;;;11.18;6.95;;;4.00;99.90;;;;;;5032974;28;20088;-89
2022/04/17 03:41:53;;;;;;;9.40;7.10;;;4.10;99.90;;;;;;5033042;28;20531;-89
2022/04/17 03:44:19;;;;;;;9.73;7.07;;;4.00;99.90;;;;;;5032785;28;20053;-90
2022/04/17 03:46:45;;;;;;;10.90;7.30;;;4.00;99.90;;;;;;5032766;28;20049;-88
2022/04/17 03:49:11;;;;;;;8.95;7.22;;;4.10;99.90;;;;;;5031230;28;20045;-88
2022/04/17 03:51:37;;;;;;;8.90;7.10;;;4.10;99.90;;;;;;5033042;28;20041;-90
2022/04/17 03:54:03;;;;;;;10.57;7.25;;;4.10;99.90;;;;;;5032502;28;20041;-90
2022/04/17 03:56:28;;;;;;;12.38;7.82;;;4.20;99.90;;;;;;5032976;28;20077;-90
2022/04/17 03:58:54;;;;;;;10.35;7.53;;;4.20;99.90;;;;;;5032798;28;20049;-89
2022/04/17 04:01:19;;;;;;;17.40;7.57;;;4.20;99.90;;;;;;5032530;28;20049;-89
2022/04/17 04:03:47;;;;;;;10.75;7.32;;;4.20;99.90;;;;;;5031266;28;20415;-89
2022/04/17 04:06:12;;;;;;;10.13;7.40;;;4.20;99.90;;;;;;5032166;28;20156;-89
2022/04/17 04:08:39;;;;;;;12.93;7.68;;;4.20;99.90;;;;;;5032180;28;20051;-89
2022/04/17 04:11:05;;;;;;;13.02;7.63;;;4.20;99.90;;;;;;5032144;28;20112;-89
2022/04/17 04:13:32;;;;;;;9.45;7.50;;;4.20;99.90;;;;;;5049062;28;20045;-90
2022/04/17 04:15:58;;;;;;;10.63;7.30;;;4.10;99.90;;;;;;5032110;28;20038;-89
2022/04/17 04:18:24;;;;;;;10.43;7.40;;;4.10;99.90;;;;;;5031240;28;20033;-89
2022/04/17 04:20:49;;;;;;;10.80;8.10;;;4.10;99.90;;;;;;5032231;28;20049;-89
2022/04/17 04:23:16;;;;;;;10.55;7.65;;;4.10;99.90;;;;;;5020603;28;20053;-89
2022/04/17 04:25:42;;;;;;;9.65;7.70;;;4.10;99.90;;;;;;5031271;28;20048;-89
2022/04/17 04:30:51;;;;;;;10.73;7.85;;;3.90;99.90;;;;;;5044805;28;20542;-89
2022/04/17 04:33:17;;;;;;;13.88;8.27;;;3.90;99.90;;;;;;5051510;28;20061;-88
2022/04/17 04:35:42;;;;;;;10.65;8.20;;;3.90;99.90;;;;;;5039123;28;20087;-88
2022/04/17 04:38:08;;;;;;;10.77;7.45;;;3.90;99.90;;;;;;5032266;28;20041;-89
2022/04/17 04:40:33;;;;;;;12.02;8.07;;;3.90;99.90;;;;;;5031786;28;20426;-89
2022/04/17 04:43:00;;;;;;;12.23;8.50;;;3.90;99.90;;;;;;5015529;28;20061;-89
2022/04/17 04:48:10;;;;;;;12.90;8.50;;;3.80;99.90;;;;;;5032091;28;20450;-89
2022/04/17 04:50:36;;;;;;;13.30;8.75;;;3.80;99.90;;;;;;5031638;28;20033;-89
2022/04/17 04:53:02;;;;;;;10.50;8.25;;;3.80;99.90;;;;;;5010490;28;20037;-89
2022/04/17 04:55:28;;;;;;;12.60;8.30;;;3.80;99.90;;;;;;5013349;28;20045;-89
2022/04/17 04:57:53;;;;;;;14.30;8.77;;;3.90;99.90;;;;;;5031527;28;20041;-89
2022/04/17 05:00:19;;;;;;;12.32;8.65;;;3.90;99.90;;;;;;5031800;28;20037;-89
2022/04/17 05:02:44;;;;;;;10.38;8.48;;;4.00;99.90;;;;;;5031237;28;20045;-88
2022/04/17 05:05:10;;;;;;;10.90;8.50;;;4.00;99.90;;;;;;5031183;28;20041;-88
2022/04/17 05:07:37;;;;;;;12.40;9.25;;;4.00;99.90;;;;;;5031130;28;20138;-88
2022/04/17 05:10:04;;;;;;;11.70;8.95;;;4.10;99.90;;;;;;5030440;28;20479;-89
2022/04/17 05:12:29;;;;;;;12.63;8.77;;;4.20;99.90;;;;;;5014595;28;20033;-88
2022/04/17 05:14:55;;;;;;;13.50;8.93;;;4.10;99.90;;;;;;5014923;28;20556;-89
2022/04/17 05:17:21;;;;;;;12.25;9.05;;;4.40;99.90;;;;;;5014878;28;20526;-89
2022/04/17 05:19:46;;;;;;;11.95;9.18;;;4.40;99.90;;;;;;5030303;28;20411;-87
2022/04/17 05:22:16;;;;;;;13.13;9.07;;;4.50;99.90;;;;;;5031303;28;20048;-88
2022/04/17 05:24:45;;;;;;;13.85;9.50;;;4.60;99.90;;;;;;5014169;28;20179;-88
2022/04/17 05:27:12;;;;;;;11.52;8.88;;;4.70;99.90;;;;;;5030949;28;20033;-87
2022/04/17 05:29:38;;;;;;;11.50;9.32;;;4.90;99.90;;;;;;5021711;28;21384;-87
2022/04/17 05:32:03;;;;;;;13.82;9.55;;;5.00;99.90;;;;;;5020239;28;20049;-88
2022/04/17 05:34:29;;;;;;;12.23;8.75;;;5.10;99.90;;;;;;5028889;28;20519;-88
2022/04/17 05:36:55;;;;;;;13.23;9.35;;;5.20;99.90;;;;;;5031030;28;20053;-88
2022/04/17 05:39:20;;;;;;;13.55;9.05;;;5.30;99.90;;;;;;5047486;28;20033;-87
2022/04/17 05:41:47;;;;;;;14.73;9.52;;;5.40;99.90;;;;;;5030645;28;20049;-87
2022/04/17 05:44:12;;;;;;;12.02;9.65;;;5.50;99.90;;;;;;5030413;28;20034;-87
2022/04/17 05:46:41;;;;;;;15.02;9.45;;;5.60;99.90;;;;;;5030472;28;20546;-87
2022/04/17 05:49:07;;;;;;;11.77;9.70;;;5.70;99.90;;;;;;5030276;28;20037;-87
2022/04/17 05:51:34;;;;;;;13.65;9.55;;;5.80;99.90;;;;;;5030636;28;20561;-88
2022/04/17 05:54:00;;;;;;;12.55;9.68;;;5.90;99.90;;;;;;5013977;28;20084;-88
2022/04/17 05:56:27;;;;;;;13.23;9.95;;;5.90;99.90;;;;;;5030534;28;20042;-88
2022/04/17 05:58:52;;;;;;;15.93;9.75;;;6.00;99.90;;;;;;5030118;28;20174;-87
2022/04/17 06:01:18;;;;;;;13.90;10.27;;;6.10;99.90;;;;;;5025958;28;20159;-87
2022/04/17 06:03:44;;;;;;;14.02;9.82;;;6.20;99.90;;;;;;5008212;28;20511;-87
2022/04/17 06:06:10;;;;;;;12.43;9.63;;;6.30;99.90;;;;;;5022825;28;20760;-88
2022/04/17 06:08:36;;;;;;;13.35;10.23;;;6.30;99.90;;;;;;5029989;28;20083;-88
2022/04/17 06:11:01;;;;;;;12.93;10.07;;;6.40;99.90;;;;;;5040084;28;20091;-89
2022/04/17 06:13:27;;;;;;;14.23;10.50;;;6.50;99.90;;;;;;5030216;28;20037;-88
2022/04/17 06:15:53;;;;;;;12.75;9.68;;;6.60;99.90;;;;;;5028787;28;20042;-87
2022/04/17 06:18:18;;;;;;;14.50;10.35;;;6.60;99.90;;;;;;5030153;28;20095;-88
2022/04/17 06:20:44;;;;;;;14.82;10.60;;;6.70;99.90;;;;;;5010597;28;20492;-89
2022/04/17 06:23:09;;;;;;;13.82;10.20;;;6.80;99.90;;;;;;5008837;28;20037;-88
2022/04/17 06:25:35;;;;;;;16.10;10.00;;;6.90;99.90;;;;;;5030442;28;20051;-87
2022/04/17 06:28:01;;;;;;;15.18;10.73;;;7.00;99.90;;;;;;5030700;28;20076;-88
2022/04/17 06:30:27;;;;;;;14.07;10.93;;;7.10;99.90;;;;;;5015521;28;20080;-88
2022/04/17 06:32:53;;;;;;;13.48;10.45;;;7.20;99.90;;;;;;5017479;28;20041;-87
2022/04/17 06:35:18;;;;;;;15.93;10.45;;;7.30;99.90;;;;;;5034239;28;20518;-86
2022/04/17 06:38:10;;;;;;;13.45;9.75;;;7.40;99.90;;;;;;5032789;28;20072;-88
2022/04/17 06:40:37;;;;;;;14.60;11.18;;;7.60;99.90;;;;;;5033493;28;20041;-88
2022/04/17 06:43:07;;;;;;;15.63;10.50;;;7.70;99.90;;;;;;5034340;28;20095;-88
2022/04/17 06:45:34;;;;;;;12.93;10.00;;;7.80;99.90;;;;;;5034322;28;20399;-88
2022/04/17 06:48:19;;;;;;;15.32;10.32;;;7.90;99.90;;;;;;5034321;28;20029;-87
2022/04/17 06:50:46;;;;;;;11.55;9.48;;;8.10;99.90;;;;;;5033699;28;20069;-87
2022/04/17 06:53:12;;;;;;;12.60;9.82;;;8.20;99.90;;;;;;5034275;28;20057;-89
2022/04/17 06:55:38;;;;;;;13.18;9.75;;;8.30;99.90;;;;;;5049226;28;20068;-87
2022/04/17 06:58:04;;;;;;;12.05;9.65;;;8.40;99.90;;;;;;5034595;28;20045;-88
2022/04/17 07:00:30;;;;;;;12.90;9.50;;;8.40;99.90;;;;;;5031215;28;20045;-89
2022/04/17 07:02:56;;;;;;;11.65;9.60;;;8.50;99.90;;;;;;5028935;28;20041;-88
2022/04/17 07:05:21;;;;;;;12.77;9.80;;;8.60;99.90;;;;;;5013574;28;20033;-89
2022/04/17 07:08:03;;;;;;;13.60;9.93;;;8.70;99.90;;;;;;5030704;28;20087;-89
2022/04/17 07:10:30;;;;;;;11.10;8.50;;;8.90;99.90;;;;;;5028037;28;20037;-89
2022/04/17 07:12:56;;;;;;;11.82;9.32;;;9.00;99.90;;;;;;5031830;28;21794;-88
2022/04/17 07:15:24;;;;;;;14.68;9.90;;;9.10;99.90;;;;;;5028484;28;20573;-88
2022/04/17 07:17:50;;;;;;;11.80;8.93;;;9.20;99.90;;;;;;5031943;28;20422;-88
2022/04/17 07:20:16;;;;;;;12.63;9.30;;;9.40;99.90;;;;;;5031616;28;20053;-88
2022/04/17 07:22:42;;;;;;;12.50;8.95;;;9.40;99.90;;;;;;5024183;28;20507;-88
2022/04/17 07:25:09;;;;;;;12.70;8.85;;;10.00;99.90;;;;;;5032884;28;20048;-88
2022/04/17 07:27:47;;;;;;;13.43;9.40;;;9.70;99.90;;;;;;5013486;28;20381;-89
2022/04/17 07:30:14;;;;;;;12.25;8.95;;;9.80;99.90;;;;;;5030982;28;20041;-89
2022/04/17 07:32:41;;;;;;;11.75;9.20;;;10.20;99.90;;;;;;5008590;28;20483;-89
2022/04/17 07:35:08;;;;;;;13.75;8.95;;;10.10;99.90;;;;;;5016002;28;20045;-88
2022/04/17 07:37:35;;;;;;;13.50;8.35;;;10.20;99.90;;;;;;5032540;28;20041;-89
2022/04/17 07:40:07;;;;;;;12.77;8.30;;;10.50;99.90;;;;;;5016092;28;20057;-89
2022/04/17 07:42:33;;;;;;;12.05;8.70;;;10.30;99.90;;;;;;5049929;28;20522;-89
2022/04/17 07:44:58;;;;;;;11.93;8.80;;;10.50;99.90;;;;;;5031248;28;20064;-89
2022/04/17 07:47:24;;;;;;;11.85;8.95;;;10.70;99.90;;;;;;5026885;28;20037;-90
2022/04/17 07:49:51;;;;;;;11.38;8.30;;;10.60;99.90;;;;;;5032190;28;20403;-89
2022/04/17 07:52:17;;;;;;;10.60;8.48;;;11.20;99.90;;;;;;5032805;28;20042;-88
2022/04/17 07:54:43;;;;;;;11.20;8.40;;;10.70;99.90;;;;;;5031182;28;20143;-89
2022/04/17 07:57:13;;;;;;;10.75;8.45;;;10.90;99.90;;;;;;5030776;28;20046;-89
2022/04/17 07:59:40;;;;;;;11.48;8.55;;;11.30;99.90;;;;;;5013940;28;20045;-88
2022/04/17 08:02:11;;;;;;;11.43;7.97;;;11.10;99.90;;;;;;5032634;28;20082;-88
2022/04/17 08:04:43;;;;;;;11.85;8.30;;;11.20;99.90;;;;;;5028216;28;20029;-87
2022/04/17 08:07:09;;;;;;;10.82;8.23;;;11.10;99.90;;;;;;5027010;28;20080;-87
2022/04/17 08:09:34;;;;;;;10.25;7.82;;;11.90;99.90;;;;;;5009252;28;20076;-87
2022/04/17 08:12:01;;;;;;;10.73;8.15;;;11.60;99.90;;;;;;5023392;28;20050;-88
2022/04/17 08:14:27;;;;;;;11.52;8.50;;;12.20;99.90;;;;;;5022787;28;20186;-87
2022/04/17 08:16:52;;;;;;;12.85;7.88;;;11.70;99.90;;;;;;5031893;28;20115;-88
2022/04/17 08:19:18;;;;;;;10.68;8.05;;;11.70;99.90;;;;;;5032567;28;20187;-88
2022/04/17 08:21:43;;;;;;;11.95;8.32;;;11.90;99.90;;;;;;5029579;28;20064;-88
2022/04/17 08:24:09;;;;;;;11.85;8.13;;;12.00;99.90;;;;;;5022533;28;20068;-87
2022/04/17 08:26:34;;;;;;;10.07;8.07;;;12.10;99.90;;;;;;5025925;28;20114;-87
2022/04/17 08:29:00;;;;;;;11.85;7.90;;;12.10;99.90;;;;;;5030271;28;20504;-88
2022/04/17 08:31:26;;;;;;;8.95;7.40;;;12.20;99.90;;;;;;5030206;28;20033;-87
2022/04/17 08:33:52;;;;;;;9.27;7.43;;;12.30;99.40;;;;;;5021971;28;20491;-87
2022/04/17 08:36:18;;;;;;;10.70;7.32;;;12.40;99.10;;;;;;5030838;28;20048;-88
2022/04/17 08:38:44;;;;;;;9.35;7.03;;;12.50;98.10;;;;;;5023657;28;20406;-88
2022/04/17 08:41:11;;;;;;;10.65;7.22;;;12.50;97.00;;;;;;5029405;28;20136;-88
2022/04/17 08:43:37;;;;;;;9.82;6.22;;;12.70;97.40;;;;;;5030642;28;20515;-88
2022/04/17 08:46:03;;;;;;;10.90;6.35;;;12.80;96.90;;;;;;5021371;28;20052;-88
2022/04/17 08:48:31;;;;;;;10.38;6.82;;;12.80;95.40;;;;;;5023005;28;20044;-87
2022/04/17 08:50:57;;;;;;;8.63;6.05;;;12.80;94.40;;;;;;4997480;28;20042;-87
2022/04/17 08:53:24;;;;;;;9.60;6.28;;;12.90;94.00;;;;;;5029922;28;20041;-87
2022/04/17 08:55:51;;;;;;;7.57;5.68;;;13.00;93.70;;;;;;5023797;28;20705;-87
2022/04/17 08:58:17;;;;;;;8.98;5.85;;;13.10;93.00;;;;;;5030713;28;20037;-87
2022/04/17 09:00:42;;;;;;;8.88;6.60;;;13.40;93.30;;;;;;5008384;28;20038;-88
2022/04/17 09:03:09;;;;;;;9.68;6.40;;;13.30;93.00;;;;;;5030012;28;20042;-88
2022/04/17 09:05:35;;;;;;;9.40;6.22;;;13.40;93.20;;;;;;5021550;28;20041;-88
2022/04/17 09:08:14;;;;;;;8.35;6.07;;;13.60;93.50;;;;;;5027257;28;20053;-87
2022/04/17 09:10:40;;;;;;;7.38;5.28;;;14.30;91.10;;;;;;5029458;28;20030;-88
2022/04/17 09:13:06;;;;;;;8.38;5.80;;;13.50;91.00;;;;;;5012742;28;20548;-88
2022/04/17 09:15:34;;;;;;;8.80;6.40;;;14.10;90.70;;;;;;5027519;28;20034;-87
2022/04/17 09:18:00;;;;;;;8.07;5.55;;;14.00;90.60;;;;;;5026776;28;20042;-87
2022/04/17 09:20:27;;;;;;;7.30;5.45;;;13.90;90.40;;;;;;5021522;28;20427;-87
2022/04/17 09:22:55;;;;;;;9.68;6.72;;;14.00;90.00;;;;;;5031092;28;20446;-87
2022/04/17 09:25:26;;;;;;;7.40;6.18;;;13.70;87.60;;;;;;5014592;28;20040;-87
2022/04/17 09:28:03;;;;;;;8.02;6.13;;;14.00;88.30;;;;;;5013973;28;20045;-88
2022/04/17 09:30:38;;;;;;;8.15;6.30;;;14.00;88.10;;;;;;5030388;28;20041;-88
2022/04/17 09:33:12;;;;;;;8.07;5.80;;;14.00;88.30;;;;;;5010205;28;20626;-87
2022/04/17 09:35:38;;;;;;;7.25;5.28;;;14.20;87.50;;;;;;5009955;28;20125;-87
2022/04/17 09:38:05;;;;;;;7.07;5.68;;;14.30;88.50;;;;;;5010864;28;20479;-88
2022/04/17 09:40:31;;;;;;;7.10;5.53;;;14.40;88.10;;;;;;5011946;28;20095;-87
2022/04/17 09:43:34;;;;;;;7.30;5.60;;;14.30;85.80;;;;;;5017260;28;20042;-86
2022/04/17 09:46:10;;;;;;;7.18;5.50;;;14.50;85.10;;;;;;4983779;28;20083;-87
2022/04/17 09:48:38;;;;;;;8.10;5.38;;;14.50;82.80;;;;;;5028601;28;20559;-87
2022/04/17 09:51:26;;;;;;;8.20;5.70;;;14.50;83.50;;;;;;5024307;28;20042;-87
2022/04/17 09:53:56;;;;;;;7.45;5.38;;;14.50;78.60;;;;;;5040735;28;20061;-86
2022/04/17 09:56:31;;;;;;;8.80;5.45;;;14.60;82.00;;;;;;5026270;28;20030;-84
2022/04/17 09:58:57;;;;;;;7.18;5.13;;;14.50;78.00;;;;;;5030009;28;20037;-86
2022/04/17 10:01:23;;;;;;;7.30;5.68;;;14.60;80.80;;;;;;5014400;28;20129;-87
2022/04/17 10:03:50;;;;;;;7.03;5.60;;;14.70;80.70;;;;;;5017444;28;20114;-87
2022/04/17 10:06:15;;;;;;;8.75;5.95;;;14.90;81.30;;;;;;5008531;28;20037;-87
2022/04/17 10:08:44;;;;;;;7.13;5.28;;;15.00;77.80;;;;;;5026477;28;20377;-86
2022/04/17 10:11:13;;;;;;;8.02;5.25;;;14.90;79.10;;;;;;5009529;28;20041;-88
2022/04/17 10:13:39;;;;;;;6.95;5.43;;;15.10;80.70;;;;;;5024959;28;20120;-88
2022/04/17 10:16:07;;;;;;;10.80;5.90;;;15.40;81.20;;;;;;5026425;28;20495;-87
2022/04/17 10:18:34;;;;;;;9.93;5.53;;;15.60;79.30;;;;;;5011986;28;20048;-87
2022/04/17 10:21:01;;;;;;;7.63;5.53;;;15.50;78.70;;;;;;5027717;28;20083;-86
2022/04/17 10:23:28;;;;;;;8.07;5.38;;;15.60;74.00;;;;;;5023958;28;20427;-87
2022/04/17 10:25:58;;;;;;;6.95;5.43;;;15.70;77.90;;;;;;5009945;28;20400;-88
2022/04/17 10:28:29;;;;;;;7.03;5.20;;;15.80;76.20;;;;;;5025831;28;20046;-88
2022/04/17 10:31:14;;;;;;;6.93;4.88;;;15.80;75.20;;;;;;5026429;28;20461;-87
2022/04/17 10:34:07;;;;;;;7.32;5.38;;;15.80;72.90;;;;;;5026252;28;20502;-88
2022/04/17 10:37:19;;;;;;;7.38;5.00;;;16.10;74.70;;;;;;5024829;28;20078;-88
2022/04/17 10:39:50;;;;;;;9.13;5.10;;;16.30;73.40;;;;;;5022481;28;20061;-87
2022/04/17 10:42:16;;;;;;;7.85;4.45;;;16.50;76.40;;;;;;5010136;28;20099;-87
2022/04/17 10:44:42;;;;;;;6.68;4.85;;;16.60;75.20;;;;;;5027694;28;20041;-87
2022/04/17 10:47:20;;;;;;;11.48;4.10;;;16.70;74.60;;;;;;5029656;28;20042;-86
2022/04/17 10:49:56;;;;;;;5.45;4.30;;;16.70;67.90;;;;;;5007793;28;20037;-86
2022/04/17 10:52:33;;;;;;;8.15;4.22;;;16.90;71.30;;;;;;5009295;28;20086;-86
2022/04/17 10:55:09;;;;;;;7.78;4.40;;;17.00;71.10;;;;;;5018274;28;20083;-87
2022/04/17 10:57:46;;;;;;;5.22;4.00;;;17.10;69.10;;;;;;5020300;28;20041;-87
2022/04/17 11:00:37;;;;;;;5.55;4.53;;;17.30;69.70;;;;;;5028315;28;20033;-87
2022/04/17 11:03:11;;;;;;;5.80;4.30;;;17.30;68.30;;;;;;5027307;28;20034;-88
2022/04/17 11:08:24;;;;;;;5.45;4.13;;;17.50;69.70;;;;;;5027392;28;20041;-86
2022/04/17 11:10:53;;;;;;;5.18;3.97;;;17.60;69.90;;;;;;5025887;28;20132;-87
2022/04/17 11:13:19;;;;;;;6.18;4.38;;;17.50;67.50;;;;;;5024428;28;20169;-87
2022/04/17 11:15:52;;;;;;;6.03;4.47;;;17.70;67.90;;;;;;5025655;28;20119;-86
2022/04/17 11:18:23;;;;;;;6.15;4.32;;;17.80;68.10;;;;;;5027378;28;20418;-86
2022/04/17 11:20:53;;;;;;;5.60;4.60;;;18.00;68.90;;;;;;5030677;28;20101;-87
2022/04/17 11:23:56;;;;;;;6.03;4.82;;;18.10;68.40;;;;;;5028991;28;20053;-87
2022/04/17 11:26:52;;;;;;;5.35;4.60;;;18.30;69.10;;;;;;5028103;28;20049;-85
2022/04/17 11:29:32;;;;;;;9.00;4.72;;;18.40;67.30;;;;;;5028689;28;20037;-85
2022/04/17 11:31:58;;;;;;;6.40;4.88;;;18.60;68.00;;;;;;5029717;28;20033;-85
2022/04/17 11:34:23;;;;;;;7.80;5.22;;;18.70;68.50;;;;;;5047718;28;20643;-85
2022/04/17 11:36:49;;;;;;;6.60;4.40;;;18.70;67.00;;;;;;5031853;28;20649;-86
2022/04/17 11:39:26;;;;;;;5.28;3.97;;;18.70;66.00;;;;;;5031479;28;20041;-84
2022/04/17 11:41:52;;;;;;;6.38;4.43;;;18.80;62.80;;;;;;5026157;28;20045;-85
2022/04/17 11:44:18;;;;;;;5.80;4.03;;;18.80;64.20;;;;;;5028687;28;20033;-84
2022/04/17 11:46:43;;;;;;;6.13;4.30;;;18.70;57.90;;;;;;5029860;28;20400;-84
2022/04/17 11:49:09;;;;;;;8.02;5.43;;;18.70;60.00;;;;;;5013970;28;20037;-85
2022/04/17 11:51:43;;;;;;;7.57;5.15;;;18.90;62.30;;;;;;5012653;28;20049;-84
2022/04/17 11:54:34;;;;;;;6.28;5.45;;;19.10;63.60;;;;;;5029036;28;20042;-84
2022/04/17 11:57:00;;;;;;;8.65;5.53;;;19.20;63.20;;;;;;5034715;28;20041;-84
2022/04/17 11:59:26;;;;;;;6.38;5.10;;;19.30;63.90;;;;;;5029005;28;20095;-84
2022/04/17 12:02:14;;;;;;;7.55;5.13;;;19.50;63.80;;;;;;5015404;28;20037;-84
2022/04/17 12:04:48;;;;;;;7.82;5.28;;;19.60;63.20;;;;;;5026158;28;20182;-84
2022/04/17 12:07:18;;;;;;;6.20;4.70;;;19.60;62.40;;;;;;5033495;28;20045;-84
2022/04/17 12:09:43;;;;;;;6.40;5.20;;;19.60;61.10;;;;;;5026784;28;20025;-85
2022/04/17 12:12:11;;;;;;;6.82;4.72;;;19.80;62.70;;;;;;5019076;28;20399;-84
2022/04/17 12:14:36;;;;;;;7.88;5.50;;;20.00;63.50;;;;;;5009993;28;20120;-85
2022/04/17 12:17:03;;;;;;;6.85;5.30;;;20.20;63.20;;;;;;5024720;28;20571;-84
2022/04/17 12:19:31;;;;;;;6.85;4.82;;;20.30;61.50;;;;;;5025276;28;20114;-85
2022/04/17 12:21:57;;;;;;;6.57;5.00;;;20.30;61.70;;;;;;5037407;28;20034;-84
2022/04/17 12:24:25;;;;;;;6.90;4.07;;;20.50;62.50;;;;;;5022620;28;20057;-85
2022/04/17 12:26:52;;;;;;;8.73;4.90;;;20.60;62.70;;;;;;5026231;28;21797;-86
2022/04/17 12:29:18;;;;;;;6.57;4.45;;;20.70;62.00;;;;;;5024567;28;20041;-85
2022/04/17 12:31:44;;;;;;;5.95;4.47;;;20.70;61.40;;;;;;5023556;28;20037;-86
2022/04/17 12:34:18;;;;;;;4.80;4.22;;;20.70;60.70;;;;;;5023449;28;20388;-85
2022/04/17 12:36:44;;;;;;;7.13;4.88;;;20.80;61.30;;;;;;5009236;28;20390;-85
2022/04/17 12:39:10;;;;;;;5.90;4.20;;;20.90;60.90;;;;;;5029906;28;20103;-85
2022/04/17 12:41:42;;;;;;;8.30;5.10;;;20.90;61.00;;;;;;5026932;28;20049;-86
2022/04/17 12:44:08;;;;;;;5.50;4.60;;;20.90;60.10;;;;;;5027994;28;20064;-87
2022/04/17 12:46:35;;;;;;;6.97;4.63;;;20.70;59.40;;;;;;5024971;28;20037;-87
2022/04/17 12:49:06;;;;;;;7.72;4.97;;;20.90;59.30;;;;;;5024704;28;20034;-86
2022/04/17 12:51:32;;;;;;;5.28;4.75;;;20.90;57.90;;;;;;5023588;28;20092;-86
2022/04/17 12:53:57;;;;;;;7.13;4.88;;;21.00;59.00;;;;;;5031059;28;20038;-87
2022/04/17 12:56:27;;;;;;;6.28;4.90;;;21.00;58.10;;;;;;5028666;28;20089;-87
2022/04/17 12:59:02;;;;;;;7.03;4.88;;;21.20;57.90;;;;;;5024131;28;20041;-85
2022/04/17 13:01:45;;;;;;;6.35;4.65;;;21.40;57.60;;;;;;5010804;28;20487;-85
2022/04/17 13:04:19;;;;;;;7.88;5.00;;;21.20;56.00;;;;;;5025055;28;20041;-87
2022/04/17 13:07:04;;;;;;;7.10;4.85;;;21.00;56.20;;;;;;5041180;28;20049;-84
2022/04/17 13:09:29;;;;;;;7.75;5.70;;;21.10;56.40;;;;;;5025601;28;20037;-86
2022/04/17 13:11:55;;;;;;;8.50;5.22;;;21.00;56.70;;;;;;5023121;28;20522;-85